Strona główna
METAR-TAF:

METAR-TAF

Lotnisko :

Trevico, Włochy

Szerokość geograficzna: 41-03N, Długość geograficzna: 015-14E, wysokość: 1085 m

Aktualna obserwacja pogody

Raport powstał 46 minut temu, godzina 23:55 UTC
Wiatr 8 kt od zachodnio-północny zachód
Temperatura 3°C
Wilgotność 27%
Ciśnienie 1030 hPa
Widzialność 10 km lub więcej
Brak chmur poniżej 1500 m i brak chmur cumulonimbus

METAR: LIRT 222355Z 30008KT CAVOK 03/M14 Q1030 RMK SKC MON INVIS VAL INVIS VIS MIN 9999

czas: 01:41 (00:41 UTC)


TAF: brakujący

Obserwacja i prognoza pogody dla ponad 4000 lotnisk (raport METAR i TAF).

Dostępne stacje oznaczono żółtymi i czerwonymi punktami na mapie.

Najedź kursorem aby zobaczyć nazwę stacji.

Kliknij aby zobaczyć obserwacje i prognozy pogody.

Aby zmienić mapę: kliknij na zielony przycisk z czarnym krzyżykiem, aby powiększyć; na zielony przycisk z myślnikiem, aby pomniejszyć; na zielone strzałki, aby przejść do map sąsiednich.


METAR-TAF: